createdAt,value
2022-10-11T00:03:38.692Z,5.47
2022-10-11T00:06:07.405Z,5.95
2022-10-11T00:08:35.579Z,2.30
2022-10-11T00:11:04.851Z,1.90
2022-10-11T00:13:32.503Z,4.57
2022-10-11T00:16:00.540Z,5.55
2022-10-11T00:18:28.110Z,5.18
2022-10-11T00:21:05.798Z,3.25
2022-10-11T00:23:34.755Z,5.82
2022-10-11T00:26:04.253Z,8.02
2022-10-11T00:28:32.262Z,7.83
2022-10-11T00:31:00.018Z,3.65
2022-10-11T00:33:27.472Z,13.07
2022-10-11T00:35:54.988Z,7.93
2022-10-11T00:38:25.746Z,3.08
2022-10-11T00:40:56.182Z,5.15
2022-10-11T00:43:25.786Z,3.15
2022-10-11T00:45:56.347Z,5.05
2022-10-11T00:50:52.967Z,3.30
2022-10-11T00:53:20.982Z,3.22
2022-10-11T00:55:54.349Z,4.80
2022-10-11T00:58:23.915Z,5.47
2022-10-11T01:00:52.773Z,2.95
2022-10-11T01:03:22.704Z,2.35
2022-10-11T01:05:54.038Z,4.65
2022-10-11T01:08:23.114Z,2.45
2022-10-11T01:10:52.439Z,2.10
2022-10-11T01:13:43.346Z,4.22
2022-10-11T01:16:14.173Z,4.55
2022-10-11T01:18:59.397Z,6.20
2022-10-11T01:21:27.165Z,4.00
2022-10-11T01:23:57.547Z,3.53
2022-10-11T01:26:37.340Z,4.20
2022-10-11T01:29:13.812Z,2.13
2022-10-11T01:31:44.311Z,2.40
2022-10-11T01:34:18.295Z,1.95
2022-10-11T01:36:55.384Z,2.55
2022-10-11T01:39:34.893Z,9.40
2022-10-11T01:42:04.702Z,5.50
2022-10-11T01:44:32.933Z,10.10
2022-10-11T01:47:00.375Z,12.00
2022-10-11T01:49:27.970Z,11.02
2022-10-11T01:51:56.413Z,8.48
2022-10-11T01:55:04.014Z,3.00
2022-10-11T01:57:45.082Z,1.73
2022-10-11T02:00:22.596Z,4.18
2022-10-11T02:03:02.605Z,8.13
2022-10-11T02:05:32.897Z,10.15
2022-10-11T02:08:06.156Z,15.25
2022-10-11T02:10:37.934Z,12.40
2022-10-11T02:13:08.720Z,7.60
2022-10-11T02:15:38.855Z,10.05
2022-10-11T02:18:11.381Z,4.90
2022-10-11T02:20:40.904Z,11.55
2022-10-11T02:23:16.450Z,4.53
2022-10-11T02:25:44.809Z,8.68
2022-10-11T02:28:15.926Z,9.63
2022-10-11T02:30:45.452Z,5.93
2022-10-11T02:33:14.173Z,4.47
2022-10-11T02:35:45.160Z,6.00
2022-10-11T02:38:15.607Z,4.38
2022-10-11T02:43:10.706Z,3.97
2022-10-11T02:45:56.664Z,5.03
2022-10-11T02:48:25.538Z,5.05
2022-10-11T02:50:56.466Z,4.72
2022-10-11T02:53:24.543Z,4.68
2022-10-11T02:55:54.159Z,4.85
2022-10-11T02:58:22.229Z,9.27
2022-10-11T03:00:50.237Z,6.60
2022-10-11T03:03:17.841Z,5.20
2022-10-11T03:05:45.699Z,4.57
2022-10-11T03:08:14.425Z,7.78
2022-10-11T03:10:42.261Z,9.77
2022-10-11T03:13:17.231Z,7.22
2022-10-11T03:16:00.572Z,4.60
2022-10-11T03:18:30.211Z,6.28
2022-10-11T03:20:57.979Z,6.68
2022-10-11T03:23:25.930Z,8.25
2022-10-11T03:25:57.517Z,5.25
2022-10-11T03:28:25.650Z,8.30
2022-10-11T03:30:54.158Z,9.23
2022-10-11T03:33:22.666Z,12.05
2022-10-11T03:35:50.831Z,7.80
2022-10-11T03:38:23.802Z,8.02
2022-10-11T03:40:55.222Z,10.07
2022-10-11T03:43:24.632Z,8.43
2022-10-11T03:45:53.418Z,19.83
2022-10-11T03:48:22.511Z,7.95
2022-10-11T03:50:50.106Z,8.30
2022-10-11T03:53:18.130Z,7.60
2022-10-11T03:55:45.632Z,6.72
2022-10-11T03:58:14.794Z,6.50
2022-10-11T04:00:42.446Z,7.47
2022-10-11T04:03:10.171Z,7.47
2022-10-11T04:05:38.088Z,5.13
2022-10-11T04:08:09.825Z,6.25
2022-10-11T04:10:40.323Z,7.82
2022-10-11T04:13:08.049Z,9.55
2022-10-11T04:15:37.241Z,11.48
2022-10-11T04:18:05.703Z,9.05
2022-10-11T04:20:33.113Z,11.85
2022-10-11T04:23:00.785Z,5.68
2022-10-11T04:25:29.068Z,8.35
2022-10-11T04:27:57.028Z,9.05
2022-10-11T04:30:24.661Z,9.40
2022-10-11T04:32:53.344Z,10.63
2022-10-11T04:35:20.839Z,10.32
2022-10-11T04:37:48.256Z,8.30
2022-10-11T04:40:15.969Z,8.30
2022-10-11T04:42:43.459Z,11.27
2022-10-11T04:45:11.221Z,6.60
2022-10-11T04:47:41.239Z,4.57
2022-10-11T04:50:08.789Z,4.50
2022-10-11T04:52:38.836Z,7.03
2022-10-11T04:55:06.936Z,8.30
2022-10-11T04:57:34.581Z,7.50
2022-10-11T05:00:02.460Z,9.02
2022-10-11T05:02:30.211Z,8.90
2022-10-11T05:04:58.682Z,11.98
2022-10-11T05:07:26.712Z,7.35
2022-10-11T05:09:54.904Z,6.47
2022-10-11T05:12:24.175Z,6.78
2022-10-11T05:14:53.110Z,5.55
2022-10-11T05:17:27.574Z,14.32
2022-10-11T05:19:55.319Z,9.88
2022-10-11T05:22:27.606Z,8.60
2022-10-11T05:24:55.462Z,7.03
2022-10-11T05:27:23.336Z,12.15
2022-10-11T05:29:51.457Z,13.38
2022-10-11T05:32:27.603Z,13.70
2022-10-11T05:34:55.367Z,13.15
2022-10-11T05:37:24.979Z,14.98
2022-10-11T05:39:53.977Z,11.50
2022-10-11T05:42:24.395Z,8.75
2022-10-11T05:44:52.647Z,9.75
2022-10-11T05:47:20.027Z,11.93
2022-10-11T05:49:47.494Z,8.05
2022-10-11T05:52:20.091Z,16.02
2022-10-11T05:54:48.791Z,7.38
2022-10-11T05:57:16.455Z,10.45
2022-10-11T05:59:44.990Z,9.57
2022-10-11T06:02:13.985Z,8.88
2022-10-11T06:04:41.404Z,8.63
2022-10-11T06:07:10.446Z,5.32
2022-10-11T06:09:39.913Z,9.07
2022-10-11T06:12:07.356Z,11.65
2022-10-11T06:14:36.382Z,10.40
2022-10-11T06:17:04.296Z,5.05
2022-10-11T06:19:31.742Z,16.35
2022-10-11T06:21:59.341Z,6.75
2022-10-11T06:24:27.147Z,7.47
2022-10-11T06:26:55.991Z,9.20
2022-10-11T06:29:26.870Z,7.35
2022-10-11T06:31:54.812Z,9.00
2022-10-11T06:34:25.416Z,11.60
2022-10-11T06:36:54.364Z,7.80
2022-10-11T06:39:22.571Z,11.23
2022-10-11T06:41:50.780Z,7.25
2022-10-11T06:44:18.632Z,10.45
2022-10-11T06:46:46.096Z,7.70
2022-10-11T06:49:13.756Z,12.45
2022-10-11T06:51:41.288Z,10.68
2022-10-11T06:54:09.035Z,18.13
2022-10-11T06:56:36.707Z,15.05
2022-10-11T06:59:07.200Z,21.98
2022-10-11T07:04:03.090Z,12.50
2022-10-11T07:06:32.024Z,17.90
2022-10-11T07:09:01.041Z,17.20
2022-10-11T07:11:28.918Z,19.05
2022-10-11T07:13:58.259Z,18.13
2022-10-11T07:16:26.426Z,18.00
2022-10-11T07:18:59.858Z,17.20
2022-10-11T07:21:28.807Z,19.00
2022-10-11T07:23:56.213Z,20.67
2022-10-11T07:26:25.541Z,20.67
2022-10-11T07:28:55.737Z,23.35
2022-10-11T07:31:26.524Z,24.88
2022-10-11T07:33:55.520Z,23.65
2022-10-11T07:36:27.099Z,32.30
2022-10-11T07:38:56.242Z,25.95
2022-10-11T07:41:24.698Z,28.80
2022-10-11T07:43:53.521Z,26.17
2022-10-11T07:46:21.523Z,25.92
2022-10-11T07:48:53.848Z,28.88
2022-10-11T07:51:23.668Z,23.10
2022-10-11T07:53:53.292Z,22.90
2022-10-11T07:56:23.828Z,26.73
2022-10-11T07:58:57.268Z,32.22
2022-10-11T08:01:25.340Z,26.35
2022-10-11T08:03:57.192Z,29.85
2022-10-11T08:06:27.496Z,25.83
2022-10-11T08:08:55.047Z,26.98
2022-10-11T08:11:24.328Z,26.08
2022-10-11T08:13:52.398Z,25.45
2022-10-11T08:16:20.586Z,24.73
2022-10-11T08:18:48.148Z,36.38
2022-10-11T08:21:16.524Z,34.10
2022-10-11T08:23:43.952Z,25.85
2022-10-11T08:26:12.804Z,31.67
2022-10-11T08:28:40.707Z,27.45
2022-10-11T08:31:08.381Z,27.50
2022-10-11T08:33:36.270Z,34.42
2022-10-11T08:36:07.978Z,29.50
2022-10-11T08:38:37.322Z,28.38
2022-10-11T08:41:15.052Z,27.23
2022-10-11T08:43:53.890Z,25.95
2022-10-11T08:46:27.213Z,19.27
2022-10-11T08:48:56.301Z,32.80
2022-10-11T08:51:30.985Z,22.85
2022-10-11T08:54:07.733Z,25.92
2022-10-11T08:56:38.269Z,36.05
2022-10-11T08:59:14.833Z,16.50
2022-10-11T09:01:54.126Z,26.00
2022-10-11T09:04:22.394Z,28.33
2022-10-11T09:06:57.169Z,27.40
2022-10-11T09:09:38.090Z,24.00
2022-10-11T09:12:27.101Z,17.27
2022-10-11T09:14:58.661Z,17.95
2022-10-11T09:17:44.762Z,18.63
2022-10-11T09:20:32.015Z,29.90
2022-10-11T09:23:18.473Z,19.00
2022-10-11T09:25:55.086Z,21.40
2022-10-11T09:28:41.787Z,29.33
2022-10-11T09:31:11.392Z,24.23
2022-10-11T09:33:49.068Z,18.50
2022-10-11T09:36:34.928Z,22.85
2022-10-11T09:39:08.691Z,21.27
2022-10-11T09:41:54.783Z,19.42
2022-10-11T09:44:26.783Z,17.92
2022-10-11T09:46:58.512Z,19.20
2022-10-11T09:49:37.257Z,15.05
2022-10-11T09:52:07.175Z,13.93
2022-10-11T09:54:41.910Z,20.98
2022-10-11T09:57:23.981Z,17.27
2022-10-11T10:00:08.780Z,18.98
2022-10-11T10:02:49.353Z,15.80
2022-10-11T10:05:27.864Z,20.95
2022-10-11T10:08:05.105Z,19.90
2022-10-11T10:10:40.392Z,16.27
2022-10-11T10:13:19.866Z,22.00
2022-10-11T10:15:48.358Z,17.75
2022-10-11T10:18:37.257Z,17.25
2022-10-11T10:21:07.780Z,21.00
2022-10-11T10:26:22.654Z,12.15
2022-10-11T10:28:55.992Z,16.52
2022-10-11T10:31:25.812Z,12.90
2022-10-11T10:33:55.233Z,12.23
2022-10-11T10:36:25.314Z,16.52
2022-10-11T10:39:13.701Z,17.30
2022-10-11T10:41:43.738Z,11.63
2022-10-11T10:44:11.855Z,16.15
2022-10-11T10:46:57.598Z,11.32
2022-10-11T10:49:52.974Z,19.42
2022-10-11T10:52:55.227Z,16.98
2022-10-11T10:55:28.562Z,19.10
2022-10-11T10:57:59.295Z,14.50
2022-10-11T11:00:29.818Z,13.60
2022-10-11T11:05:28.360Z,12.15
2022-10-11T11:08:04.926Z,13.05
2022-10-11T11:10:42.209Z,20.52
2022-10-11T11:13:09.933Z,16.67
2022-10-11T11:15:41.144Z,13.57
2022-10-11T11:18:18.773Z,17.42
2022-10-11T11:20:56.019Z,16.95
2022-10-11T11:23:43.175Z,19.17
2022-10-11T11:26:16.357Z,16.40
2022-10-11T11:28:50.268Z,23.38
2022-10-11T11:31:29.993Z,18.40
2022-10-11T11:34:12.605Z,13.60
2022-10-11T11:36:43.443Z,13.27
2022-10-11T11:39:37.427Z,16.63
2022-10-11T11:42:14.086Z,10.80
2022-10-11T11:44:50.047Z,13.38
2022-10-11T11:47:21.490Z,15.32
2022-10-11T11:49:54.627Z,19.48
2022-10-11T11:52:48.501Z,17.23
2022-10-11T11:55:19.759Z,16.05
2022-10-11T11:58:06.991Z,12.55
2022-10-11T12:00:43.227Z,16.70
2022-10-11T12:03:13.502Z,17.67
2022-10-11T12:08:09.960Z,14.18
2022-10-11T12:10:56.555Z,16.50
2022-10-11T12:13:41.117Z,13.75
2022-10-11T12:16:12.342Z,11.48
2022-10-11T12:18:53.283Z,12.27
2022-10-11T12:21:31.956Z,12.93
2022-10-11T12:24:11.130Z,9.52
2022-10-11T12:26:43.348Z,14.75
2022-10-11T12:29:22.445Z,12.40
2022-10-11T12:32:02.382Z,15.90
2022-10-11T12:34:49.339Z,9.15
2022-10-11T12:37:19.739Z,10.13
2022-10-11T12:42:28.099Z,7.45
2022-10-11T12:45:14.591Z,9.98
2022-10-11T12:47:48.153Z,17.88
2022-10-11T12:50:20.961Z,15.15
2022-10-11T12:52:59.379Z,12.85
2022-10-11T12:55:29.774Z,9.50
2022-10-11T13:00:32.685Z,16.90
2022-10-11T13:03:28.445Z,13.38
2022-10-11T13:06:01.820Z,21.60
2022-10-11T13:08:35.049Z,13.48
2022-10-11T13:11:04.020Z,15.75
2022-10-11T13:13:39.908Z,11.02
2022-10-11T13:16:14.038Z,15.63
2022-10-11T13:18:45.162Z,16.85
2022-10-11T13:21:23.052Z,18.38
2022-10-11T13:23:55.638Z,27.63
2022-10-11T13:26:26.124Z,15.18
2022-10-11T13:28:58.169Z,10.60
2022-10-11T13:31:26.191Z,14.48
2022-10-11T13:33:59.319Z,12.45
2022-10-11T13:36:31.622Z,14.55
2022-10-11T13:39:02.461Z,11.07
2022-10-11T13:41:30.923Z,15.85
2022-10-11T13:44:00.111Z,13.18
2022-10-11T13:46:28.968Z,11.25
2022-10-11T13:49:02.156Z,12.27
2022-10-11T13:51:32.749Z,10.73
2022-10-11T13:54:01.948Z,13.60
2022-10-11T13:56:30.733Z,10.57
2022-10-11T13:58:58.612Z,10.57
2022-10-11T14:01:27.118Z,11.07
2022-10-11T14:04:04.815Z,8.40
2022-10-11T14:06:50.736Z,8.93
2022-10-11T14:09:19.229Z,11.10
2022-10-11T14:11:47.576Z,13.50
2022-10-11T14:14:30.110Z,10.43
2022-10-11T14:16:59.738Z,14.82
2022-10-11T14:19:27.211Z,8.13
2022-10-11T14:21:56.466Z,7.75
2022-10-11T14:24:24.681Z,12.93
2022-10-11T14:26:53.972Z,10.95
2022-10-11T14:29:25.386Z,10.88
2022-10-11T14:31:57.098Z,10.52
2022-10-11T14:34:27.012Z,8.40
2022-10-11T14:36:55.185Z,9.80
2022-10-11T14:39:24.060Z,12.70
2022-10-11T14:41:53.402Z,10.02
2022-10-11T14:44:24.720Z,9.70
2022-10-11T14:46:54.994Z,9.23
2022-10-11T14:51:54.287Z,8.85
2022-10-11T14:54:24.501Z,17.30
2022-10-11T14:56:56.961Z,8.38
2022-10-11T14:59:26.036Z,6.50
2022-10-11T15:01:55.824Z,10.13
2022-10-11T15:04:25.142Z,7.75
2022-10-11T15:06:54.304Z,7.13
2022-10-11T15:09:25.281Z,10.05
2022-10-11T15:11:54.961Z,5.82
2022-10-11T15:14:25.991Z,8.48
2022-10-11T15:16:56.217Z,8.52
2022-10-11T15:19:25.993Z,12.80
2022-10-11T15:21:55.131Z,10.15
2022-10-11T15:24:24.835Z,8.68
2022-10-11T15:26:54.303Z,7.70
2022-10-11T15:29:24.464Z,8.45
2022-10-11T15:31:53.834Z,8.40
2022-10-11T15:34:22.873Z,7.10
2022-10-11T15:36:50.460Z,14.27
2022-10-11T15:39:24.666Z,11.30
2022-10-11T15:41:53.975Z,12.18
2022-10-11T15:44:23.519Z,8.52
2022-10-11T15:46:54.393Z,8.67
2022-10-11T15:49:23.084Z,8.27
2022-10-11T15:51:51.012Z,16.08
2022-10-11T15:54:19.900Z,11.15
2022-10-11T15:56:48.002Z,10.82
2022-10-11T15:59:16.794Z,9.80
2022-10-11T16:01:44.990Z,8.55
2022-10-11T16:04:12.769Z,10.80
2022-10-11T16:06:41.237Z,12.02
2022-10-11T16:09:09.556Z,9.75
2022-10-11T16:11:37.002Z,11.55
2022-10-11T16:14:04.896Z,15.80
2022-10-11T16:16:32.431Z,22.75
2022-10-11T16:18:59.978Z,15.43
2022-10-11T16:21:28.361Z,10.23
2022-10-11T16:23:56.863Z,19.25
2022-10-11T16:26:30.997Z,12.35
2022-10-11T16:29:03.363Z,11.52
2022-10-11T16:31:31.886Z,11.15
2022-10-11T16:33:59.483Z,12.18
2022-10-11T16:36:35.944Z,18.15
2022-10-11T16:39:07.823Z,11.95
2022-10-11T16:41:35.398Z,11.10
2022-10-11T16:44:02.870Z,16.27
2022-10-11T16:46:30.408Z,14.30
2022-10-11T16:48:58.047Z,15.27
2022-10-11T16:51:25.521Z,10.57
2022-10-11T16:53:54.265Z,13.00
2022-10-11T16:56:24.221Z,14.00
2022-10-11T16:58:54.987Z,6.72
2022-10-11T17:01:24.146Z,12.73
2022-10-11T17:03:54.604Z,10.40
2022-10-11T17:06:23.645Z,7.03
2022-10-11T17:08:52.073Z,10.48
2022-10-11T17:11:22.371Z,10.38
2022-10-11T17:13:52.332Z,11.05
2022-10-11T17:16:22.520Z,11.38
2022-10-11T17:18:50.665Z,13.85
2022-10-11T17:21:20.973Z,11.40
2022-10-11T17:23:50.622Z,12.55
2022-10-11T17:26:27.344Z,12.38
2022-10-11T17:28:56.078Z,11.27
2022-10-11T17:31:26.510Z,9.85
2022-10-11T17:33:55.166Z,7.70
2022-10-11T17:36:24.819Z,11.02
2022-10-11T17:38:53.946Z,12.33
2022-10-11T17:41:22.189Z,12.55
2022-10-11T17:43:49.832Z,19.23
2022-10-11T17:46:17.700Z,11.38
2022-10-11T17:48:45.647Z,8.93
2022-10-11T17:51:14.909Z,12.50
2022-10-11T17:53:42.707Z,9.10
2022-10-11T17:56:18.227Z,8.00
2022-10-11T17:58:45.892Z,10.13
2022-10-11T18:01:15.232Z,8.90
2022-10-11T18:03:43.722Z,10.32
2022-10-11T18:06:13.341Z,14.00
2022-10-11T18:08:41.819Z,13.77
2022-10-11T18:11:13.587Z,8.23
2022-10-11T18:13:45.718Z,11.50
2022-10-11T18:16:14.083Z,11.88
2022-10-11T18:18:42.466Z,17.92
2022-10-11T18:21:11.117Z,21.88
2022-10-11T18:23:38.909Z,7.03
2022-10-11T18:26:10.563Z,8.80
2022-10-11T18:28:38.211Z,12.30
2022-10-11T18:31:13.525Z,15.13
2022-10-11T18:33:42.151Z,12.52
2022-10-11T18:36:12.233Z,15.60
2022-10-11T18:38:43.591Z,11.10
2022-10-11T18:41:11.818Z,12.60
2022-10-11T18:43:39.354Z,5.75
2022-10-11T18:46:07.469Z,9.68
2022-10-11T18:48:35.178Z,6.28
2022-10-11T18:51:06.980Z,10.70
2022-10-11T18:53:35.427Z,12.93
2022-10-11T18:56:04.797Z,9.52
2022-10-11T18:58:33.217Z,7.00
2022-10-11T19:01:07.761Z,11.57
2022-10-11T19:03:36.140Z,15.30
2022-10-11T19:06:08.312Z,14.60
2022-10-11T19:08:37.140Z,11.60
2022-10-11T19:11:16.042Z,13.15
2022-10-11T19:13:45.717Z,14.43
2022-10-11T19:16:14.843Z,14.23
2022-10-11T19:18:44.374Z,10.73
2022-10-11T19:21:13.578Z,13.45
2022-10-11T19:23:42.767Z,12.93
2022-10-11T19:26:18.513Z,10.57
2022-10-11T19:28:46.692Z,10.35
2022-10-11T19:31:16.963Z,12.82
2022-10-11T19:36:24.800Z,13.80
2022-10-11T19:38:56.839Z,12.77
2022-10-11T19:41:27.510Z,19.63
2022-10-11T19:49:20.372Z,8.55
2022-10-11T19:51:50.701Z,14.68
2022-10-11T19:54:19.126Z,14.95
2022-10-11T19:56:46.532Z,15.07
2022-10-11T19:59:14.710Z,11.10
2022-10-11T20:01:51.977Z,14.50
2022-10-11T20:04:50.674Z,9.63
2022-10-11T20:07:11.123Z,14.55
2022-10-11T20:09:38.651Z,13.93
2022-10-11T20:12:06.363Z,12.27
2022-10-11T20:14:33.862Z,8.95
2022-10-11T20:17:01.602Z,9.02
2022-10-11T20:19:31.043Z,11.38
2022-10-11T20:21:59.562Z,10.82
2022-10-11T20:24:29.441Z,12.75
2022-10-11T20:26:56.883Z,13.00
2022-10-11T20:29:25.453Z,15.60
2022-10-11T20:31:53.894Z,14.15
2022-10-11T20:34:24.321Z,12.65
2022-10-11T20:36:54.341Z,15.65
2022-10-11T20:39:23.009Z,12.32
2022-10-11T20:41:50.644Z,11.30
2022-10-11T20:44:18.160Z,9.10
2022-10-11T20:46:45.933Z,10.65
2022-10-11T20:49:13.932Z,12.80
2022-10-11T20:51:42.708Z,9.93
2022-10-11T20:54:10.515Z,13.50
2022-10-11T20:56:38.431Z,12.02
2022-10-11T20:59:09.502Z,11.13
2022-10-11T21:01:41.289Z,13.50
2022-10-11T21:04:10.995Z,11.43
2022-10-11T21:06:38.425Z,14.07
2022-10-11T21:09:05.986Z,14.27
2022-10-11T21:11:35.126Z,16.52
2022-10-11T21:14:03.750Z,12.38
2022-10-11T21:16:31.860Z,15.88
2022-10-11T21:19:00.248Z,7.50
2022-10-11T21:21:29.701Z,20.65
2022-10-11T21:23:58.523Z,18.65
2022-10-11T21:26:27.817Z,6.63
2022-10-11T21:28:55.890Z,11.00
2022-10-11T21:31:29.754Z,12.27
2022-10-11T21:33:59.709Z,12.48
2022-10-11T21:36:27.490Z,10.55
2022-10-11T21:38:55.248Z,7.32
2022-10-11T21:41:30.886Z,9.88
2022-10-11T21:43:58.869Z,9.50
2022-10-11T21:46:53.978Z,10.68
2022-10-11T21:49:17.688Z,11.52
2022-10-11T21:51:46.606Z,6.85
2022-10-11T21:54:14.570Z,9.20
2022-10-11T21:56:42.478Z,11.75
2022-10-11T21:59:12.978Z,12.30
2022-10-11T22:04:08.056Z,10.07
2022-10-11T22:06:36.130Z,12.00
2022-10-11T22:09:04.198Z,9.35
2022-10-11T22:11:32.054Z,7.55
2022-10-11T22:13:59.660Z,12.95
2022-10-11T22:16:27.332Z,10.80
2022-10-11T22:18:55.178Z,9.88
2022-10-11T22:21:24.323Z,7.15
2022-10-11T22:23:54.153Z,8.90
2022-10-11T22:26:27.938Z,8.10
2022-10-11T22:28:55.727Z,8.07
2022-10-11T22:31:24.824Z,9.23
2022-10-11T22:33:55.932Z,10.95
2022-10-11T22:36:25.169Z,15.52
2022-10-11T22:38:54.086Z,10.68
2022-10-11T22:41:22.957Z,6.22
2022-10-11T22:43:50.517Z,14.65
2022-10-11T22:46:18.215Z,10.52
2022-10-11T22:48:45.862Z,11.50
2022-10-11T22:51:14.566Z,8.82
2022-10-11T22:53:41.973Z,6.68
2022-10-11T22:56:10.671Z,5.40
2022-10-11T22:58:38.468Z,6.72
2022-10-11T23:01:09.409Z,11.13
2022-10-11T23:06:07.567Z,9.32
2022-10-11T23:08:35.380Z,7.43
2022-10-11T23:11:04.317Z,8.50
2022-10-11T23:13:32.077Z,13.45
2022-10-11T23:15:59.844Z,19.45
2022-10-11T23:18:27.953Z,5.55
2022-10-11T23:20:55.383Z,5.00
2022-10-11T23:23:24.307Z,4.88
2022-10-11T23:26:00.746Z,7.25
2022-10-11T23:28:28.216Z,10.48
2022-10-11T23:30:56.117Z,12.27
2022-10-11T23:33:25.444Z,7.35
2022-10-11T23:35:54.336Z,5.90
2022-10-11T23:38:22.322Z,7.03
2022-10-11T23:40:49.708Z,8.50
2022-10-11T23:43:17.117Z,5.20
2022-10-11T23:45:45.178Z,7.40
2022-10-11T23:48:12.836Z,4.38
2022-10-11T23:50:40.553Z,5.30
2022-10-11T23:53:08.146Z,7.22
2022-10-11T23:55:35.830Z,7.03
2022-10-11T23:58:03.551Z,9.85
